Icon-ios-app
Strava
Free app for Android and iPhone
Download

Blockhouse Challenge: Rouge Roubaix

Ride Segment Woodville, MS
  • Distance 2.4km
  • Avg Grade 4%
  • Lowest Elev 8m
  • Highest Elev 94m
  • Elev Difference 86m
  • Climb Category 4
  • 1,172 Attempts By 564 People

Men's Leaderboard

Rank Name Speed Power VAM Time
1 Andy Scarano 27.8km/h 327W 991 5:11
1 Colin Strickland 27.8km/h 448W Powermeter 991 5:11
3 Brian Hill 27.7km/h 380W 988 5:12
4 Corey Ray_Team Cadence Cyclery p.b. MINI OF PLANO 27.5km/h 339W 978 5:15
4 Andrew Hammond 27.5km/h 383W Powermeter 978 5:15
4 Tristan Uhl 27.5km/h 318W 978 5:15
4 Michael Pincus 27.5km/h 360W Powermeter 978 5:15
8 Nathan Smith 27.4km/h 381W Powermeter 975 5:16
8 Timothy Rugg 27.4km/h 413W Powermeter 975 5:16
10 Parker K. 27.3km/h 314W 972 5:17
11 Frank Travieso 27.1km/h 373W 966 5:19
12 Tim Reinhart 26.9km/h 359W 957 5:22
13 Dayne Martin 26.6km/h 327W 945 5:26
13 Winston David 26.6km/h 368W Powermeter 945 5:26
15 Peter Reed - Marx Bensdorf Cycling 26.4km/h 425W Powermeter 940 5:28
17 Lars Finanger 26.2km/h 387W 931 5:31
17 Jake L. 26.2km/h 359W Powermeter 931 5:31
19 Brian Toone 26.1km/h 321W 928 5:32

Women's Leaderboard

Rank Name Speed Power VAM Time
3 Alexis Zink 22.4km/h 235W 796 6:27
5 Jan B. 20.7km/h 245W Powermeter 737 6:58
8 Kristen Legan 20.0km/h 296W 713 7:12
9 Meredith Miller 18.7km/h 197W 666 7:43
10 Liz Barcheck 18.6km/h 206W 663 7:45
11 Allison Bullock 18.5km/h 166W 657 7:49
11 Mary J. 18.5km/h 189W 657 7:49
13 Nicole Marcoe 18.0km/h 168W 642 8:00
15 samantha stein 17.2km/h 133W 611 8:24
17 Betty Jean Jordan 17.0km/h 143W 607 8:28
19 Bay Women's Racing- Heather Nelson 15.5km/h 139W 550 9:20

Join Strava to see the full leaderboard